createdAt,value
2022-11-01T00:00:57.000Z,281.81
2022-11-01T00:02:23.000Z,281.81
2022-11-01T00:04:30.000Z,281.79
2022-11-01T00:05:56.000Z,281.77
2022-11-01T00:08:02.000Z,281.75
2022-11-01T00:09:29.000Z,281.75
2022-11-01T00:11:36.000Z,281.73
2022-11-01T00:13:02.000Z,281.73
2022-11-01T00:15:09.000Z,281.72
2022-11-01T00:18:00.000Z,281.72
2022-11-01T00:19:26.000Z,281.73
2022-11-01T00:21:33.000Z,281.75
2022-11-01T00:22:59.000Z,281.75
2022-11-01T00:25:06.000Z,281.76
2022-11-01T00:26:33.000Z,281.77
2022-11-01T00:28:39.000Z,281.81
2022-11-01T00:30:05.000Z,281.84
2022-11-01T00:32:11.000Z,281.88
2022-11-01T00:33:38.000Z,281.89
2022-11-01T00:35:44.000Z,281.94
2022-11-01T00:37:11.000Z,281.96
2022-11-01T00:39:17.000Z,281.96
2022-11-01T00:40:43.000Z,281.98
2022-11-01T00:42:49.000Z,281.96
2022-11-01T00:44:16.000Z,281.99
2022-11-01T00:46:22.000Z,282.02
2022-11-01T00:47:48.000Z,281.99
2022-11-01T00:49:54.000Z,282.01
2022-11-01T00:51:21.000Z,282.01
2022-11-01T00:53:27.000Z,282.02
2022-11-01T00:56:18.000Z,282.02
2022-11-01T00:57:45.000Z,282.03
2022-11-01T00:59:51.000Z,282.02
2022-11-01T01:01:17.000Z,282.02
2022-11-01T01:03:24.000Z,282.02
2022-11-01T01:04:50.000Z,282.02
2022-11-01T01:06:56.000Z,282.03
2022-11-01T01:08:23.000Z,282.05
2022-11-01T01:10:29.000Z,282.08
2022-11-01T01:11:55.000Z,282.08
2022-11-01T01:14:01.000Z,282.09
2022-11-01T01:15:28.000Z,282.1
2022-11-01T01:17:34.000Z,282.13
2022-11-01T01:19:01.000Z,282.14
2022-11-01T01:21:07.000Z,282.13
2022-11-01T01:22:33.000Z,282.14
2022-11-01T01:24:39.000Z,282.16
2022-11-01T01:26:06.000Z,282.19
2022-11-01T01:28:12.000Z,282.16
2022-11-01T01:29:38.000Z,282.19
2022-11-01T01:31:44.000Z,282.19
2022-11-01T01:34:36.000Z,282.19
2022-11-01T01:36:02.000Z,282.2
2022-11-01T01:38:09.000Z,282.2
2022-11-01T01:39:35.000Z,282.2
2022-11-01T01:41:41.000Z,282.24
2022-11-01T01:43:08.000Z,282.23
2022-11-01T01:45:14.000Z,282.26
2022-11-01T01:46:40.000Z,282.24
2022-11-01T01:48:46.000Z,282.24
2022-11-01T01:50:13.000Z,282.26
2022-11-01T01:52:19.000Z,282.26
2022-11-01T01:53:45.000Z,282.3
2022-11-01T01:55:52.000Z,282.3
2022-11-01T01:57:18.000Z,282.34
2022-11-01T01:59:24.000Z,282.34
2022-11-01T02:00:51.000Z,282.36
2022-11-01T02:02:57.000Z,282.36
2022-11-01T02:04:24.000Z,282.38
2022-11-01T02:06:30.000Z,282.36
2022-11-01T02:07:56.000Z,282.38
2022-11-01T02:10:02.000Z,282.39
2022-11-01T02:12:53.000Z,282.41
2022-11-01T02:14:20.000Z,282.42
2022-11-01T02:16:26.000Z,282.42
2022-11-01T02:17:52.000Z,282.45
2022-11-01T02:19:58.000Z,282.46
2022-11-01T02:21:25.000Z,282.46
2022-11-01T02:23:31.000Z,282.49
2022-11-01T02:24:58.000Z,282.49
2022-11-01T02:27:04.000Z,282.47
2022-11-01T02:28:30.000Z,282.49
2022-11-01T02:30:36.000Z,282.52
2022-11-01T02:32:03.000Z,282.5
2022-11-01T02:34:09.000Z,282.5
2022-11-01T02:35:35.000Z,282.52
2022-11-01T02:37:42.000Z,282.52
2022-11-01T02:39:08.000Z,282.52
2022-11-01T02:41:14.000Z,282.5
2022-11-01T02:42:41.000Z,282.5
2022-11-01T02:44:47.000Z,282.53
2022-11-01T02:46:14.000Z,282.54
2022-11-01T02:48:20.000Z,282.54
2022-11-01T02:51:11.000Z,282.6
2022-11-01T02:52:37.000Z,282.59
2022-11-01T02:54:43.000Z,282.6
2022-11-01T02:56:10.000Z,282.61
2022-11-01T02:58:16.000Z,282.66
2022-11-01T02:59:42.000Z,282.67
2022-11-01T03:01:49.000Z,282.7
2022-11-01T03:03:15.000Z,282.73
2022-11-01T03:05:21.000Z,282.77
2022-11-01T03:06:48.000Z,282.81
2022-11-01T03:08:54.000Z,282.82
2022-11-01T03:10:21.000Z,282.86
2022-11-01T03:13:53.000Z,282.92
2022-11-01T03:15:59.000Z,282.93
2022-11-01T03:17:26.000Z,282.95
2022-11-01T03:19:32.000Z,282.95
2022-11-01T03:20:58.000Z,282.96
2022-11-01T03:23:05.000Z,282.98
2022-11-01T03:24:31.000Z,282.95
2022-11-01T03:26:38.000Z,282.98
2022-11-01T03:29:29.000Z,283
2022-11-01T03:30:55.000Z,283.02
2022-11-01T03:33:01.000Z,282.99
2022-11-01T03:34:28.000Z,283.03
2022-11-01T03:36:35.000Z,283.05
2022-11-01T03:38:01.000Z,283.05
2022-11-01T03:40:07.000Z,283.07
2022-11-01T03:41:34.000Z,283.16
2022-11-01T03:43:40.000Z,283.17
2022-11-01T03:45:06.000Z,283.18
2022-11-01T03:47:13.000Z,283.36
2022-11-01T03:48:39.000Z,283.4
2022-11-01T03:50:45.000Z,283.58
2022-11-01T03:52:12.000Z,283.69
2022-11-01T03:54:18.000Z,283.82
2022-11-01T03:55:45.000Z,283.83
2022-11-01T03:57:51.000Z,283.89
2022-11-01T03:59:17.000Z,284
2022-11-01T04:01:23.000Z,283.97
2022-11-01T04:02:50.000Z,284.02
2022-11-01T04:04:56.000Z,284.19
2022-11-01T04:07:47.000Z,284.17
2022-11-01T04:09:14.000Z,284.19
2022-11-01T04:11:20.000Z,284.22
2022-11-01T04:12:46.000Z,284.33
2022-11-01T04:14:52.000Z,284.34
2022-11-01T04:16:19.000Z,284.35
2022-11-01T04:18:25.000Z,284.48
2022-11-01T04:19:52.000Z,284.63
2022-11-01T04:21:58.000Z,284.67
2022-11-01T04:23:24.000Z,284.73
2022-11-01T04:25:31.000Z,284.78
2022-11-01T04:26:57.000Z,284.89
2022-11-01T04:29:03.000Z,284.94
2022-11-01T04:30:30.000Z,285
2022-11-01T04:32:36.000Z,285.11
2022-11-01T04:34:02.000Z,285.2
2022-11-01T04:36:08.000Z,285.22
2022-11-01T04:37:35.000Z,285.31
2022-11-01T04:39:41.000Z,285.36
2022-11-01T04:41:08.000Z,285.36
2022-11-01T04:43:14.000Z,285.43
2022-11-01T04:46:05.000Z,285.45
2022-11-01T04:47:31.000Z,285.46
2022-11-01T04:49:37.000Z,285.43
2022-11-01T04:51:04.000Z,285.38
2022-11-01T04:53:10.000Z,285.36
2022-11-01T04:54:36.000Z,285.32
2022-11-01T04:56:43.000Z,285.32
2022-11-01T04:58:09.000Z,285.36
2022-11-01T05:00:15.000Z,285.4
2022-11-01T05:01:42.000Z,285.43
2022-11-01T05:03:48.000Z,285.45
2022-11-01T05:05:14.000Z,285.4
2022-11-01T05:07:20.000Z,285.4
2022-11-01T05:08:47.000Z,285.39
2022-11-01T05:10:53.000Z,285.36
2022-11-01T05:12:20.000Z,285.35
2022-11-01T05:14:26.000Z,285.36
2022-11-01T05:15:52.000Z,285.32
2022-11-01T05:18:24.000Z,285.36
2022-11-01T05:19:51.000Z,285.39
2022-11-01T05:21:57.000Z,285.4
2022-11-01T05:24:48.000Z,285.4
2022-11-01T05:26:15.000Z,285.43
2022-11-01T05:28:21.000Z,285.45
2022-11-01T05:29:47.000Z,285.46
2022-11-01T05:31:53.000Z,285.47
2022-11-01T05:33:20.000Z,285.53
2022-11-01T05:35:26.000Z,285.59
2022-11-01T05:36:52.000Z,285.61
2022-11-01T05:38:58.000Z,285.61
2022-11-01T05:40:25.000Z,285.61
2022-11-01T05:42:31.000Z,285.6
2022-11-01T05:43:58.000Z,285.61
2022-11-01T05:46:04.000Z,285.63
2022-11-01T05:47:30.000Z,285.64
2022-11-01T05:49:36.000Z,285.64
2022-11-01T05:51:03.000Z,285.63
2022-11-01T05:53:09.000Z,285.63
2022-11-01T05:54:36.000Z,285.65
2022-11-01T05:56:42.000Z,285.61
2022-11-01T05:58:08.000Z,285.61
2022-11-01T06:00:14.000Z,285.6
2022-11-01T06:03:06.000Z,285.63
2022-11-01T06:04:33.000Z,285.64
2022-11-01T06:06:39.000Z,285.65
2022-11-01T06:08:05.000Z,285.63
2022-11-01T06:10:12.000Z,285.61
2022-11-01T06:11:38.000Z,285.63
2022-11-01T06:13:47.000Z,285.64
2022-11-01T06:15:14.000Z,285.67
2022-11-01T06:17:20.000Z,285.68
2022-11-01T06:18:46.000Z,285.72
2022-11-01T06:20:53.000Z,285.74
2022-11-01T06:22:19.000Z,285.75
2022-11-01T06:24:25.000Z,285.77
2022-11-01T06:25:52.000Z,285.78
2022-11-01T06:27:58.000Z,285.78
2022-11-01T06:29:25.000Z,285.79
2022-11-01T06:31:31.000Z,285.78
2022-11-01T06:32:58.000Z,285.81
2022-11-01T06:35:04.000Z,285.84
2022-11-01T06:36:30.000Z,285.86
2022-11-01T06:38:36.000Z,285.86
2022-11-01T06:41:28.000Z,285.85
2022-11-01T06:42:54.000Z,285.88
2022-11-01T06:45:00.000Z,285.86
2022-11-01T06:46:27.000Z,285.89
2022-11-01T06:48:33.000Z,285.93
2022-11-01T06:50:00.000Z,285.95
2022-11-01T06:52:06.000Z,285.93
2022-11-01T06:53:32.000Z,285.92
2022-11-01T06:55:38.000Z,285.93
2022-11-01T06:57:05.000Z,285.93
2022-11-01T06:59:11.000Z,285.93
2022-11-01T07:00:37.000Z,285.93
2022-11-01T07:02:44.000Z,285.93
2022-11-01T07:06:17.000Z,285.92
2022-11-01T07:07:44.000Z,285.95
2022-11-01T07:09:50.000Z,285.95
2022-11-01T07:11:16.000Z,285.96
2022-11-01T07:13:23.000Z,285.97
2022-11-01T07:14:49.000Z,286.04
2022-11-01T07:16:55.000Z,286.02
2022-11-01T07:19:47.000Z,286.08
2022-11-01T07:21:13.000Z,286.1
2022-11-01T07:23:19.000Z,286.1
2022-11-01T07:24:46.000Z,286.13
2022-11-01T07:26:52.000Z,286.15
2022-11-01T07:28:19.000Z,286.13
2022-11-01T07:30:25.000Z,286.11
2022-11-01T07:31:51.000Z,286.15
2022-11-01T07:33:57.000Z,286.19
2022-11-01T07:35:24.000Z,286.23
2022-11-01T07:37:30.000Z,286.25
2022-11-01T07:38:56.000Z,286.27
2022-11-01T07:41:03.000Z,286.3
2022-11-01T07:42:29.000Z,286.33
2022-11-01T07:44:35.000Z,286.37
2022-11-01T07:46:02.000Z,286.48
2022-11-01T07:48:08.000Z,286.48
2022-11-01T07:49:34.000Z,286.56
2022-11-01T07:51:40.000Z,286.59
2022-11-01T07:53:07.000Z,286.63
2022-11-01T07:55:13.000Z,286.66
2022-11-01T07:58:05.000Z,286.69
2022-11-01T07:59:32.000Z,286.72
2022-11-01T08:01:38.000Z,286.75
2022-11-01T08:03:05.000Z,286.77
2022-11-01T08:05:11.000Z,286.82
2022-11-01T08:06:38.000Z,286.84
2022-11-01T08:08:44.000Z,286.83
2022-11-01T08:10:10.000Z,286.84
2022-11-01T08:12:16.000Z,286.87
2022-11-01T08:13:43.000Z,286.88
2022-11-01T08:15:49.000Z,286.87
2022-11-01T08:17:16.000Z,286.93
2022-11-01T08:19:22.000Z,286.91
2022-11-01T08:20:48.000Z,286.95
2022-11-01T08:22:54.000Z,286.95
2022-11-01T08:24:21.000Z,287
2022-11-01T08:26:27.000Z,287.02
2022-11-01T08:27:54.000Z,287.05
2022-11-01T08:30:00.000Z,287.09
2022-11-01T08:31:26.000Z,287.14
2022-11-01T08:33:32.000Z,287.18
2022-11-01T08:36:24.000Z,287.27
2022-11-01T08:37:50.000Z,287.37
2022-11-01T08:39:56.000Z,287.42
2022-11-01T08:41:23.000Z,287.42
2022-11-01T08:43:29.000Z,287.45
2022-11-01T08:44:56.000Z,287.46
2022-11-01T08:47:02.000Z,287.48
2022-11-01T08:48:28.000Z,287.49
2022-11-01T08:50:34.000Z,287.53
2022-11-01T08:52:01.000Z,287.54
2022-11-01T08:54:07.000Z,287.57
2022-11-01T08:55:33.000Z,287.59
2022-11-01T08:57:44.000Z,287.6
2022-11-01T08:59:10.000Z,287.63
2022-11-01T09:01:16.000Z,287.67
2022-11-01T09:02:43.000Z,287.71
2022-11-01T09:04:49.000Z,287.74
2022-11-01T09:06:16.000Z,287.77
2022-11-01T09:08:22.000Z,287.81
2022-11-01T09:09:48.000Z,287.82
2022-11-01T09:11:54.000Z,287.84
2022-11-01T09:14:45.000Z,287.85
2022-11-01T09:16:12.000Z,287.86
2022-11-01T09:18:18.000Z,287.88
2022-11-01T09:19:44.000Z,287.92
2022-11-01T09:21:51.000Z,287.96
2022-11-01T09:23:17.000Z,287.99
2022-11-01T09:25:23.000Z,288
2022-11-01T09:26:50.000Z,288.06
2022-11-01T09:28:56.000Z,288.1
2022-11-01T09:30:22.000Z,288.13
2022-11-01T09:32:29.000Z,288.16
2022-11-01T09:33:55.000Z,288.18
2022-11-01T09:36:01.000Z,288.24
2022-11-01T09:37:28.000Z,288.25
2022-11-01T09:39:34.000Z,288.25
2022-11-01T09:41:01.000Z,288.25
2022-11-01T09:43:07.000Z,288.29
2022-11-01T09:44:34.000Z,288.27
2022-11-01T09:46:40.000Z,288.27
2022-11-01T09:48:07.000Z,288.27
2022-11-01T09:50:13.000Z,288.25
2022-11-01T09:53:04.000Z,288.24
2022-11-01T09:54:31.000Z,288.23
2022-11-01T09:56:37.000Z,288.21
2022-11-01T09:58:03.000Z,288.21
2022-11-01T10:00:10.000Z,288.2
2022-11-01T10:01:36.000Z,288.18
2022-11-01T10:03:43.000Z,288.18
2022-11-01T10:05:09.000Z,288.23
2022-11-01T10:07:20.000Z,288.24
2022-11-01T10:08:46.000Z,288.29
2022-11-01T10:10:53.000Z,288.33
2022-11-01T10:12:19.000Z,288.35
2022-11-01T10:14:25.000Z,288.36
2022-11-01T10:15:52.000Z,288.39
2022-11-01T10:17:58.000Z,288.42
2022-11-01T10:19:25.000Z,288.43
2022-11-01T10:21:31.000Z,288.4
2022-11-01T10:22:57.000Z,288.39
2022-11-01T10:25:03.000Z,288.38
2022-11-01T10:26:30.000Z,288.36
2022-11-01T10:28:36.000Z,288.38
2022-11-01T10:31:27.000Z,288.38
2022-11-01T10:32:54.000Z,288.4
2022-11-01T10:35:00.000Z,288.46
2022-11-01T10:36:26.000Z,288.5
2022-11-01T10:38:32.000Z,288.56
2022-11-01T10:40:49.000Z,288.61
2022-11-01T10:42:55.000Z,288.63
2022-11-01T10:44:22.000Z,288.61
2022-11-01T10:46:28.000Z,288.54
2022-11-01T10:47:54.000Z,288.46
2022-11-01T10:50:01.000Z,288.38
2022-11-01T10:51:34.000Z,288.33
2022-11-01T10:53:40.000Z,288.29
2022-11-01T10:55:06.000Z,288.29
2022-11-01T10:57:13.000Z,288.25
2022-11-01T10:58:39.000Z,288.23
2022-11-01T11:00:45.000Z,288.18
2022-11-01T11:02:12.000Z,288.13
2022-11-01T11:04:18.000Z,288.12
2022-11-01T11:05:45.000Z,288.1
2022-11-01T11:07:51.000Z,288.07
2022-11-01T11:10:42.000Z,288.13
2022-11-01T11:12:09.000Z,288.09
2022-11-01T11:14:15.000Z,288.09
2022-11-01T11:15:41.000Z,288.07
2022-11-01T11:17:47.000Z,288.06
2022-11-01T11:19:14.000Z,288.05
2022-11-01T11:21:20.000Z,288.06
2022-11-01T11:22:54.000Z,288.14
2022-11-01T11:25:00.000Z,288.21
2022-11-01T11:26:26.000Z,288.23
2022-11-01T11:28:32.000Z,288.33
2022-11-01T11:29:59.000Z,288.4
2022-11-01T11:32:05.000Z,288.46
2022-11-01T11:33:32.000Z,288.53
2022-11-01T11:35:38.000Z,288.53
2022-11-01T11:37:04.000Z,288.54
2022-11-01T11:39:11.000Z,288.54
2022-11-01T11:40:37.000Z,288.58
2022-11-01T11:42:43.000Z,288.61
2022-11-01T11:44:10.000Z,288.58
2022-11-01T11:46:16.000Z,288.6
2022-11-01T11:49:07.000Z,288.6
2022-11-01T11:50:33.000Z,288.61
2022-11-01T11:52:40.000Z,288.61
2022-11-01T11:54:06.000Z,288.63
2022-11-01T11:56:12.000Z,288.6
2022-11-01T11:57:39.000Z,288.61
2022-11-01T12:01:12.000Z,288.6
2022-11-01T12:03:18.000Z,288.6
2022-11-01T12:04:45.000Z,288.53
2022-11-01T12:06:51.000Z,288.51
2022-11-01T12:08:18.000Z,288.47
2022-11-01T12:10:24.000Z,288.47
2022-11-01T12:11:50.000Z,288.5
2022-11-01T12:13:56.000Z,288.5
2022-11-01T12:15:23.000Z,288.51
2022-11-01T12:17:29.000Z,288.53
2022-11-01T12:18:55.000Z,288.54
2022-11-01T12:21:02.000Z,288.6
2022-11-01T12:22:28.000Z,288.63
2022-11-01T12:24:34.000Z,288.68
2022-11-01T12:27:25.000Z,288.74
2022-11-01T12:28:52.000Z,288.7
2022-11-01T12:30:58.000Z,288.68
2022-11-01T12:32:24.000Z,288.71
2022-11-01T12:34:30.000Z,288.7
2022-11-01T12:35:57.000Z,288.71
2022-11-01T12:38:03.000Z,288.71
2022-11-01T12:39:31.000Z,288.7
2022-11-01T12:41:37.000Z,288.7
2022-11-01T12:43:03.000Z,288.68
2022-11-01T12:45:09.000Z,288.71
2022-11-01T12:46:36.000Z,288.74
2022-11-01T12:48:42.000Z,288.75
2022-11-01T12:50:09.000Z,288.74
2022-11-01T12:52:15.000Z,288.75
2022-11-01T12:53:41.000Z,288.77
2022-11-01T12:55:48.000Z,288.77
2022-11-01T12:57:14.000Z,288.79
2022-11-01T12:59:20.000Z,288.85
2022-11-01T13:00:47.000Z,288.89
2022-11-01T13:02:53.000Z,288.85
2022-11-01T13:05:44.000Z,288.79
2022-11-01T13:07:10.000Z,288.78
2022-11-01T13:09:16.000Z,288.75
2022-11-01T13:10:43.000Z,288.78
2022-11-01T13:12:50.000Z,288.79
2022-11-01T13:14:16.000Z,288.78
2022-11-01T13:16:22.000Z,288.77
2022-11-01T13:17:49.000Z,288.81
2022-11-01T13:19:55.000Z,288.81
2022-11-01T13:21:22.000Z,288.81
2022-11-01T13:23:28.000Z,288.82
2022-11-01T13:24:54.000Z,288.81
2022-11-01T13:27:00.000Z,288.78
2022-11-01T13:28:27.000Z,288.74
2022-11-01T13:30:33.000Z,288.7
2022-11-01T13:31:59.000Z,288.71
2022-11-01T13:34:05.000Z,288.74
2022-11-01T13:35:32.000Z,288.71
2022-11-01T13:37:38.000Z,288.71
2022-11-01T13:39:05.000Z,288.65
2022-11-01T13:41:11.000Z,288.63
2022-11-01T13:44:02.000Z,288.58
2022-11-01T13:45:28.000Z,288.6
2022-11-01T13:47:34.000Z,288.57
2022-11-01T13:49:01.000Z,288.56
2022-11-01T13:51:07.000Z,288.54
2022-11-01T13:52:34.000Z,288.54
2022-11-01T13:54:40.000Z,288.54
2022-11-01T13:56:06.000Z,288.54
2022-11-01T13:58:12.000Z,288.5
2022-11-01T13:59:39.000Z,288.49
2022-11-01T14:01:45.000Z,288.46
2022-11-01T14:03:12.000Z,288.42
2022-11-01T14:05:18.000Z,288.42
2022-11-01T14:06:44.000Z,288.39
2022-11-01T14:08:50.000Z,288.38
2022-11-01T14:10:17.000Z,288.39
2022-11-01T14:12:23.000Z,288.39
2022-11-01T14:13:49.000Z,288.39
2022-11-01T14:15:55.000Z,288.36
2022-11-01T14:17:22.000Z,288.36
2022-11-01T14:19:28.000Z,288.35
2022-11-01T14:22:19.000Z,288.36
2022-11-01T14:23:46.000Z,288.36
2022-11-01T14:25:52.000Z,288.35
2022-11-01T14:27:18.000Z,288.33
2022-11-01T14:29:24.000Z,288.31
2022-11-01T14:30:51.000Z,288.29
2022-11-01T14:32:57.000Z,288.27
2022-11-01T14:34:23.000Z,288.25
2022-11-01T14:36:30.000Z,288.27
2022-11-01T14:37:56.000Z,288.29
2022-11-01T14:40:02.000Z,288.25
2022-11-01T14:41:29.000Z,288.23
2022-11-01T14:43:35.000Z,288.21
2022-11-01T14:45:01.000Z,288.17
2022-11-01T14:47:07.000Z,288.17
2022-11-01T14:48:34.000Z,288.17
2022-11-01T14:50:40.000Z,288.14
2022-11-01T14:52:06.000Z,288.16
2022-11-01T14:54:12.000Z,288.1
2022-11-01T14:55:40.000Z,288.06
2022-11-01T14:57:46.000Z,288.03
2022-11-01T15:00:37.000Z,287.98
2022-11-01T15:02:03.000Z,287.98
2022-11-01T15:04:10.000Z,287.96
2022-11-01T15:05:36.000Z,287.89
2022-11-01T15:07:42.000Z,287.85
2022-11-01T15:09:09.000Z,287.8
2022-11-01T15:11:15.000Z,287.74
2022-11-01T15:12:42.000Z,287.64
2022-11-01T15:14:53.000Z,287.53
2022-11-01T15:16:20.000Z,287.41
2022-11-01T15:18:26.000Z,287.35
2022-11-01T15:19:52.000Z,287.26
2022-11-01T15:21:58.000Z,287.18
2022-11-01T15:23:25.000Z,287.09
2022-11-01T15:25:31.000Z,287.05
2022-11-01T15:26:57.000Z,287
2022-11-01T15:29:04.000Z,286.94
2022-11-01T15:30:30.000Z,286.83
2022-11-01T15:32:36.000Z,286.77
2022-11-01T15:34:03.000Z,286.7
2022-11-01T15:36:09.000Z,286.65
2022-11-01T15:39:00.000Z,286.55
2022-11-01T15:40:27.000Z,286.48
2022-11-01T15:42:33.000Z,286.44
2022-11-01T15:43:59.000Z,286.38
2022-11-01T15:46:05.000Z,286.31
2022-11-01T15:47:32.000Z,286.26
2022-11-01T15:49:38.000Z,286.22
2022-11-01T15:51:05.000Z,286.16
2022-11-01T15:53:11.000Z,286.07
2022-11-01T15:54:38.000Z,286.02
2022-11-01T15:56:44.000Z,285.99
2022-11-01T15:58:10.000Z,285.97
2022-11-01T16:00:16.000Z,285.96
2022-11-01T16:01:43.000Z,285.91
2022-11-01T16:03:49.000Z,285.88
2022-11-01T16:05:15.000Z,285.84
2022-11-01T16:07:22.000Z,285.79
2022-11-01T16:08:48.000Z,285.74
2022-11-01T16:10:54.000Z,285.7
2022-11-01T16:12:21.000Z,285.63
2022-11-01T16:14:27.000Z,285.56
2022-11-01T16:17:18.000Z,285.47
2022-11-01T16:18:44.000Z,285.45
2022-11-01T16:20:50.000Z,285.39
2022-11-01T16:22:17.000Z,285.35
2022-11-01T16:24:23.000Z,285.29
2022-11-01T16:25:49.000Z,285.24
2022-11-01T16:27:56.000Z,285.21
2022-11-01T16:29:22.000Z,285.18
2022-11-01T16:31:28.000Z,285.09
2022-11-01T16:32:55.000Z,285.06
2022-11-01T16:35:01.000Z,284.99
2022-11-01T16:36:27.000Z,284.98
2022-11-01T16:38:34.000Z,284.94
2022-11-01T16:40:00.000Z,284.95
2022-11-01T16:42:06.000Z,284.92
2022-11-01T16:43:33.000Z,284.91
2022-11-01T16:45:39.000Z,284.88
2022-11-01T16:47:05.000Z,284.89
2022-11-01T16:49:11.000Z,284.85
2022-11-01T16:50:38.000Z,284.85
2022-11-01T16:52:44.000Z,284.89
2022-11-01T16:55:35.000Z,284.91
2022-11-01T16:57:03.000Z,284.89
2022-11-01T16:59:09.000Z,284.84
2022-11-01T17:00:36.000Z,284.8
2022-11-01T17:02:42.000Z,284.77
2022-11-01T17:04:09.000Z,284.7
2022-11-01T17:06:15.000Z,284.67
2022-11-01T17:07:41.000Z,284.67
2022-11-01T17:09:47.000Z,284.68
2022-11-01T17:11:14.000Z,284.67
2022-11-01T17:13:20.000Z,284.7
2022-11-01T17:14:46.000Z,284.73
2022-11-01T17:16:52.000Z,284.73
2022-11-01T17:18:19.000Z,284.67
2022-11-01T17:20:30.000Z,284.68
2022-11-01T17:21:56.000Z,284.67
2022-11-01T17:24:02.000Z,284.61
2022-11-01T17:25:29.000Z,284.54
2022-11-01T17:27:35.000Z,284.51
2022-11-01T17:29:01.000Z,284.45
2022-11-01T17:31:08.000Z,284.42
2022-11-01T17:33:59.000Z,284.33
2022-11-01T17:35:25.000Z,284.26
2022-11-01T17:37:32.000Z,284.2
2022-11-01T17:38:59.000Z,284.14
2022-11-01T17:41:05.000Z,284.08
2022-11-01T17:42:32.000Z,284
2022-11-01T17:44:38.000Z,283.94
2022-11-01T17:46:04.000Z,283.98
2022-11-01T17:48:10.000Z,283.96
2022-11-01T17:49:37.000Z,283.9
2022-11-01T17:51:43.000Z,283.84
2022-11-01T17:53:09.000Z,283.77
2022-11-01T17:55:15.000Z,283.76
2022-11-01T17:56:42.000Z,283.79
2022-11-01T17:58:48.000Z,283.77
2022-11-01T18:00:18.000Z,283.75
2022-11-01T18:02:24.000Z,283.76
2022-11-01T18:03:51.000Z,283.76
2022-11-01T18:05:57.000Z,283.77
2022-11-01T18:07:24.000Z,283.77
2022-11-01T18:09:30.000Z,283.77
2022-11-01T18:12:21.000Z,283.8
2022-11-01T18:13:47.000Z,283.8
2022-11-01T18:15:53.000Z,283.79
2022-11-01T18:17:20.000Z,283.76
2022-11-01T18:19:26.000Z,283.72
2022-11-01T18:20:53.000Z,283.72
2022-11-01T18:22:59.000Z,283.69
2022-11-01T18:24:25.000Z,283.68
2022-11-01T18:26:32.000Z,283.65
2022-11-01T18:27:58.000Z,283.68
2022-11-01T18:30:04.000Z,283.65
2022-11-01T18:31:31.000Z,283.64
2022-11-01T18:33:37.000Z,283.59
2022-11-01T18:35:03.000Z,283.54
2022-11-01T18:37:09.000Z,283.48
2022-11-01T18:38:36.000Z,283.45
2022-11-01T18:40:42.000Z,283.45
2022-11-01T18:42:08.000Z,283.41
2022-11-01T18:44:14.000Z,283.37
2022-11-01T18:45:41.000Z,283.32
2022-11-01T18:48:17.000Z,283.27
2022-11-01T18:51:08.000Z,283.3
2022-11-01T18:52:34.000Z,283.29
2022-11-01T18:54:40.000Z,283.27
2022-11-01T18:56:07.000Z,283.32
2022-11-01T18:58:13.000Z,283.34
2022-11-01T18:59:40.000Z,283.33
2022-11-01T19:01:46.000Z,283.29
2022-11-01T19:03:13.000Z,283.29
2022-11-01T19:05:19.000Z,283.27
2022-11-01T19:06:45.000Z,283.25
2022-11-01T19:08:51.000Z,283.29
2022-11-01T19:10:18.000Z,283.34
2022-11-01T19:12:24.000Z,283.36
2022-11-01T19:13:54.000Z,283.43
2022-11-01T19:16:01.000Z,283.48
2022-11-01T19:17:27.000Z,283.55
2022-11-01T19:19:33.000Z,283.55
2022-11-01T19:21:00.000Z,283.48
2022-11-01T19:23:06.000Z,283.48
2022-11-01T19:24:32.000Z,283.44
2022-11-01T19:26:38.000Z,283.43
2022-11-01T19:29:30.000Z,283.41
2022-11-01T19:30:56.000Z,283.37
2022-11-01T19:33:02.000Z,283.36
2022-11-01T19:34:29.000Z,283.34
2022-11-01T19:36:35.000Z,283.37
2022-11-01T19:38:01.000Z,283.33
2022-11-01T19:40:08.000Z,283.33
2022-11-01T19:41:35.000Z,283.34
2022-11-01T19:43:41.000Z,283.34
2022-11-01T19:45:07.000Z,283.32
2022-11-01T19:47:13.000Z,283.3
2022-11-01T19:48:42.000Z,283.27
2022-11-01T19:50:48.000Z,283.22
2022-11-01T19:52:15.000Z,283.16
2022-11-01T19:54:21.000Z,283.11
2022-11-01T19:55:47.000Z,283.09
2022-11-01T19:57:54.000Z,283.05
2022-11-01T19:59:20.000Z,283.06
2022-11-01T20:01:26.000Z,283.09
2022-11-01T20:02:53.000Z,283.07
2022-11-01T20:04:59.000Z,283.1
2022-11-01T20:07:50.000Z,283.03
2022-11-01T20:09:17.000Z,283.05
2022-11-01T20:11:23.000Z,283.05
2022-11-01T20:12:49.000Z,283
2022-11-01T20:14:55.000Z,283.03
2022-11-01T20:16:22.000Z,282.98
2022-11-01T20:18:28.000Z,283.09
2022-11-01T20:19:54.000Z,283.1
2022-11-01T20:22:01.000Z,283.06
2022-11-01T20:23:27.000Z,283.03
2022-11-01T20:25:33.000Z,282.98
2022-11-01T20:27:00.000Z,282.95
2022-11-01T20:29:06.000Z,282.88
2022-11-01T20:30:32.000Z,282.84
2022-11-01T20:32:38.000Z,282.79
2022-11-01T20:34:05.000Z,282.74
2022-11-01T20:36:11.000Z,282.71
2022-11-01T20:37:37.000Z,282.7
2022-11-01T20:39:44.000Z,282.66
2022-11-01T20:41:10.000Z,282.63
2022-11-01T20:43:16.000Z,282.6
2022-11-01T20:46:07.000Z,282.54
2022-11-01T20:47:34.000Z,282.53
2022-11-01T20:49:40.000Z,282.54
2022-11-01T20:51:06.000Z,282.54
2022-11-01T20:53:12.000Z,282.52
2022-11-01T20:54:39.000Z,282.5
2022-11-01T20:56:45.000Z,282.56
2022-11-01T20:58:12.000Z,282.49
2022-11-01T21:00:18.000Z,282.49
2022-11-01T21:01:44.000Z,282.45
2022-11-01T21:03:51.000Z,282.46
2022-11-01T21:05:17.000Z,282.42
2022-11-01T21:07:23.000Z,282.41
2022-11-01T21:08:50.000Z,282.38
2022-11-01T21:10:56.000Z,282.34
2022-11-01T21:12:22.000Z,282.3
2022-11-01T21:14:29.000Z,282.27
2022-11-01T21:15:55.000Z,282.27
2022-11-01T21:18:01.000Z,282.23
2022-11-01T21:19:28.000Z,282.2
2022-11-01T21:21:34.000Z,282.14
2022-11-01T21:24:25.000Z,282.09
2022-11-01T21:25:52.000Z,282.05
2022-11-01T21:27:58.000Z,282.01
2022-11-01T21:29:24.000Z,281.96
2022-11-01T21:31:30.000Z,281.91
2022-11-01T21:32:57.000Z,281.85
2022-11-01T21:35:03.000Z,281.82
2022-11-01T21:36:29.000Z,281.77
2022-11-01T21:38:36.000Z,281.77
2022-11-01T21:40:02.000Z,281.75
2022-11-01T21:42:12.000Z,281.7
2022-11-01T21:43:39.000Z,281.69
2022-11-01T21:45:45.000Z,281.68
2022-11-01T21:47:11.000Z,281.63
2022-11-01T21:49:17.000Z,281.63
2022-11-01T21:50:44.000Z,281.62
2022-11-01T21:52:50.000Z,281.61
2022-11-01T21:54:16.000Z,281.59
2022-11-01T21:56:23.000Z,281.56
2022-11-01T21:57:49.000Z,281.56
2022-11-01T21:59:55.000Z,281.55
2022-11-01T22:02:46.000Z,281.49
2022-11-01T22:04:13.000Z,281.48
2022-11-01T22:06:19.000Z,281.45
2022-11-01T22:07:46.000Z,281.42
2022-11-01T22:09:52.000Z,281.39
2022-11-01T22:11:18.000Z,281.36
2022-11-01T22:13:29.000Z,281.32
2022-11-01T22:14:56.000Z,281.29
2022-11-01T22:17:02.000Z,281.28
2022-11-01T22:18:28.000Z,281.25
2022-11-01T22:20:35.000Z,281.21
2022-11-01T22:22:01.000Z,281.18
2022-11-01T22:24:07.000Z,281.15
2022-11-01T22:25:34.000Z,281.12
2022-11-01T22:27:40.000Z,281.1
2022-11-01T22:29:06.000Z,281.05
2022-11-01T22:31:12.000Z,281.04
2022-11-01T22:32:39.000Z,280.97
2022-11-01T22:34:45.000Z,280.94
2022-11-01T22:36:11.000Z,280.87
2022-11-01T22:38:18.000Z,280.84
2022-11-01T22:41:08.000Z,280.73
2022-11-01T22:42:35.000Z,280.71
2022-11-01T22:44:41.000Z,280.65
2022-11-01T22:46:07.000Z,280.61
2022-11-01T22:48:13.000Z,280.56
2022-11-01T22:49:40.000Z,280.53
2022-11-01T22:51:46.000Z,280.51
2022-11-01T22:53:13.000Z,280.47
2022-11-01T22:55:19.000Z,280.45
2022-11-01T22:56:45.000Z,280.4
2022-11-01T22:58:51.000Z,280.4